createdAt,value
2022-09-17T00:01:35.752Z,98013.73
2022-09-17T00:04:05.123Z,98010.02
2022-09-17T00:06:35.896Z,98010.66
2022-09-17T00:09:07.847Z,98014.64
2022-09-17T00:11:39.844Z,98013.98
2022-09-17T00:14:12.845Z,98018.70
2022-09-17T00:16:44.087Z,98019.92
2022-09-17T00:19:20.384Z,98019.20
2022-09-17T00:21:49.103Z,98020.07
2022-09-17T00:24:18.787Z,98025.38
2022-09-17T00:26:48.906Z,98028.04
2022-09-17T00:29:17.570Z,98029.64
2022-09-17T00:31:46.382Z,98029.34
2022-09-17T00:34:14.971Z,98029.18
2022-09-17T00:36:43.674Z,98028.83
2022-09-17T00:39:12.725Z,98026.95
2022-09-17T00:41:42.515Z,98028.71
2022-09-17T00:44:40.184Z,98032.06
2022-09-17T00:47:22.274Z,98029.15
2022-09-17T00:49:56.106Z,98033.00
2022-09-17T00:52:29.535Z,98039.08
2022-09-17T00:55:24.027Z,98035.37
2022-09-17T00:57:56.488Z,98035.01
2022-09-17T01:00:27.170Z,98028.65
2022-09-17T01:02:55.973Z,98030.50
2022-09-17T01:05:49.310Z,98029.20
2022-09-17T01:08:39.580Z,98029.21
2022-09-17T01:11:40.716Z,98027.72
2022-09-17T01:14:53.971Z,98026.89
2022-09-17T01:18:21.931Z,98020.42
2022-09-17T01:20:59.112Z,98017.80
2022-09-17T01:24:19.687Z,98012.01
2022-09-17T01:27:28.496Z,98009.02
2022-09-17T01:30:22.729Z,98004.11
2022-09-17T01:33:00.013Z,98000.56
2022-09-17T01:35:52.360Z,97996.21
2022-09-17T01:38:43.518Z,97989.73
2022-09-17T01:41:48.274Z,97987.39
2022-09-17T01:44:29.356Z,97985.27
2022-09-17T01:47:16.681Z,97986.81
2022-09-17T01:49:57.594Z,97990.81
2022-09-17T01:52:27.947Z,97992.70
2022-09-17T01:55:01.045Z,97994.02
2022-09-17T01:57:53.105Z,97997.12
2022-09-17T02:00:22.323Z,98000.23
2022-09-17T02:03:47.100Z,98002.16
2022-09-17T02:06:27.299Z,98001.23
2022-09-17T02:09:23.402Z,98001.88
2022-09-17T02:12:13.601Z,98004.30
2022-09-17T02:14:50.663Z,97999.20
2022-09-17T02:17:31.449Z,97994.37
2022-09-17T02:20:02.232Z,97990.20
2022-09-17T02:23:00.222Z,97988.55
2022-09-17T02:25:44.390Z,97984.36
2022-09-17T02:28:32.862Z,97980.55
2022-09-17T02:31:02.292Z,97986.08
2022-09-17T02:33:33.379Z,97985.67
2022-09-17T02:36:02.653Z,97990.83
2022-09-17T02:38:31.894Z,97993.50
2022-09-17T02:41:14.541Z,97993.34
2022-09-17T02:43:51.148Z,97995.81
2022-09-17T02:46:46.406Z,97994.27
2022-09-17T02:49:59.350Z,97993.63
2022-09-17T02:52:52.319Z,97986.66
2022-09-17T02:55:36.502Z,97984.71
2022-09-17T02:58:43.457Z,97981.75
2022-09-17T03:02:04.128Z,97979.90
2022-09-17T03:04:34.001Z,97981.39
2022-09-17T03:07:09.135Z,97979.05
2022-09-17T03:09:36.891Z,97976.72
2022-09-17T03:12:05.582Z,97974.25
2022-09-17T03:14:33.491Z,97972.79
2022-09-17T03:17:01.756Z,97971.16
2022-09-17T03:19:30.014Z,97970.44
2022-09-17T03:21:58.012Z,97971.81
2022-09-17T03:24:26.106Z,97974.63
2022-09-17T03:26:54.085Z,97974.35
2022-09-17T03:29:22.509Z,97975.55
2022-09-17T03:31:50.323Z,97980.46
2022-09-17T03:34:18.761Z,97984.59
2022-09-17T03:36:47.537Z,97981.74
2022-09-17T03:39:15.907Z,97984.75
2022-09-17T03:41:44.459Z,97984.02
2022-09-17T03:44:13.230Z,97983.23
2022-09-17T03:46:42.813Z,97984.95
2022-09-17T03:49:12.046Z,97985.84
2022-09-17T03:51:40.563Z,97987.31
2022-09-17T03:54:09.357Z,97984.52
2022-09-17T03:56:37.160Z,97984.41
2022-09-17T03:59:05.021Z,97982.40
2022-09-17T04:01:33.277Z,97983.02
2022-09-17T04:04:03.834Z,97986.44
2022-09-17T04:06:32.311Z,97985.52
2022-09-17T04:09:05.353Z,97984.21
2022-09-17T04:11:33.570Z,97985.45
2022-09-17T04:14:01.505Z,97987.10
2022-09-17T04:16:29.677Z,97981.61
2022-09-17T04:18:57.965Z,97981.80
2022-09-17T04:22:27.386Z,97981.65
2022-09-17T04:24:55.992Z,97980.02
2022-09-17T04:27:24.299Z,97978.61
2022-09-17T04:29:52.047Z,97978.77
2022-09-17T04:32:20.405Z,97976.97
2022-09-17T04:34:48.967Z,97976.08
2022-09-17T04:37:17.058Z,97972.15
2022-09-17T04:39:44.801Z,97975.70
2022-09-17T04:42:12.959Z,97974.38
2022-09-17T04:44:40.657Z,97973.71
2022-09-17T04:47:09.317Z,97973.89
2022-09-17T04:49:37.894Z,97977.36
2022-09-17T04:52:06.117Z,97972.92
2022-09-17T04:54:33.914Z,97975.05
2022-09-17T04:57:02.042Z,97982.89
2022-09-17T04:59:29.899Z,97979.17
2022-09-17T05:01:58.125Z,97972.29
2022-09-17T05:04:25.974Z,97977.04
2022-09-17T05:06:53.793Z,97979.38
2022-09-17T05:09:21.552Z,97981.05
2022-09-17T05:12:02.681Z,97984.27
2022-09-17T05:14:35.824Z,97988.33
2022-09-17T05:17:04.526Z,97989.88
2022-09-17T05:19:32.370Z,97991.04
2022-09-17T05:22:00.126Z,97993.11
2022-09-17T05:24:28.794Z,97988.02
2022-09-17T05:26:57.832Z,97982.70
2022-09-17T05:29:26.484Z,97977.11
2022-09-17T05:31:54.398Z,97975.08
2022-09-17T05:34:22.135Z,97973.86
2022-09-17T05:36:49.902Z,97973.31
2022-09-17T05:39:17.655Z,97969.89
2022-09-17T05:41:46.327Z,97972.14
2022-09-17T05:44:17.994Z,97972.41
2022-09-17T05:46:46.963Z,97970.15
2022-09-17T05:49:15.376Z,97973.69
2022-09-17T05:51:43.763Z,97978.86
2022-09-17T05:54:11.550Z,97975.65
2022-09-17T05:56:39.436Z,97978.59
2022-09-17T05:59:07.437Z,97980.61
2022-09-17T06:01:35.308Z,97978.18
2022-09-17T06:04:04.869Z,97978.15
2022-09-17T06:06:33.621Z,97980.06
2022-09-17T06:09:01.827Z,97983.27
2022-09-17T06:11:29.995Z,97986.30
2022-09-17T06:13:57.794Z,97984.20
2022-09-17T06:16:26.090Z,97985.33
2022-09-17T06:18:54.185Z,97985.75
2022-09-17T06:21:23.201Z,97987.17
2022-09-17T06:23:51.510Z,97984.73
2022-09-17T06:26:19.567Z,97989.50
2022-09-17T06:28:50.097Z,97995.73
2022-09-17T06:31:17.969Z,98000.98
2022-09-17T06:34:01.986Z,98005.56
2022-09-17T06:36:30.188Z,98010.44
2022-09-17T06:38:58.363Z,98012.42
2022-09-17T06:41:27.442Z,98018.60
2022-09-17T06:43:57.574Z,98020.26
2022-09-17T06:46:25.956Z,98023.57
2022-09-17T06:48:54.328Z,98026.96
2022-09-17T06:51:22.909Z,98027.48
2022-09-17T06:53:50.863Z,98032.10
2022-09-17T06:56:19.499Z,98036.90
2022-09-17T06:58:47.717Z,98038.88
2022-09-17T07:01:15.501Z,98040.94
2022-09-17T07:03:43.893Z,98050.39
2022-09-17T07:06:12.784Z,98051.27
2022-09-17T07:08:41.708Z,98046.20
2022-09-17T07:11:09.829Z,98044.46
2022-09-17T07:13:38.035Z,98047.78
2022-09-17T07:16:06.688Z,98050.45
2022-09-17T07:18:34.677Z,98056.23
2022-09-17T07:21:05.384Z,98058.18
2022-09-17T07:23:36.434Z,98056.91
2022-09-17T07:26:07.690Z,98061.03
2022-09-17T07:28:35.831Z,98069.13
2022-09-17T07:31:12.411Z,98070.42
2022-09-17T07:33:43.542Z,98071.36
2022-09-17T07:36:13.395Z,98074.86
2022-09-17T07:38:41.437Z,98079.01
2022-09-17T07:41:14.778Z,98083.70
2022-09-17T07:43:43.910Z,98080.08
2022-09-17T07:46:17.949Z,98075.86
2022-09-17T07:48:47.576Z,98079.42
2022-09-17T07:51:22.213Z,98087.68
2022-09-17T07:53:58.617Z,98085.91
2022-09-17T07:56:28.011Z,98084.42
2022-09-17T07:58:56.938Z,98084.02
2022-09-17T08:01:25.050Z,98087.29
2022-09-17T08:03:55.284Z,98085.27
2022-09-17T08:06:28.620Z,98086.25
2022-09-17T08:08:57.900Z,98080.70
2022-09-17T08:14:17.538Z,98077.22
2022-09-17T08:16:47.760Z,98075.86
2022-09-17T08:19:15.883Z,98080.60
2022-09-17T08:21:44.185Z,98082.79
2022-09-17T08:24:12.053Z,98084.14
2022-09-17T08:26:41.354Z,98084.67
2022-09-17T08:29:11.424Z,98080.08
2022-09-17T08:31:39.290Z,98071.77
2022-09-17T08:34:11.331Z,98068.38
2022-09-17T08:36:39.907Z,98065.80
2022-09-17T08:39:08.653Z,98061.68
2022-09-17T08:42:04.852Z,98054.90
2022-09-17T08:44:43.887Z,98049.18
2022-09-17T08:47:38.781Z,98051.19
2022-09-17T08:50:15.026Z,98049.79
2022-09-17T08:53:04.410Z,98045.75
2022-09-17T08:55:42.773Z,98050.09
2022-09-17T08:58:39.164Z,98056.01
2022-09-17T09:01:28.167Z,98048.05
2022-09-17T09:04:34.077Z,98059.06
2022-09-17T09:07:08.400Z,98058.27
2022-09-17T09:09:49.706Z,98062.70
2022-09-17T09:12:26.984Z,98066.14
2022-09-17T09:15:06.977Z,98066.91
2022-09-17T09:17:47.062Z,98073.38
2022-09-17T09:20:19.920Z,98074.20
2022-09-17T09:22:50.916Z,98075.60
2022-09-17T09:25:41.757Z,98091.02
2022-09-17T09:28:29.538Z,98095.54
2022-09-17T09:31:32.979Z,98100.33
2022-09-17T09:34:04.582Z,98105.27
2022-09-17T09:36:33.943Z,98106.82
2022-09-17T09:39:10.515Z,98097.67
2022-09-17T09:41:55.918Z,98102.80
2022-09-17T09:44:25.573Z,98104.59
2022-09-17T09:47:15.967Z,98102.81
2022-09-17T09:49:56.385Z,98096.93
2022-09-17T09:52:59.948Z,98098.95
2022-09-17T09:56:05.506Z,98100.54
2022-09-17T09:58:41.315Z,98099.04
2022-09-17T10:01:14.625Z,98096.92
2022-09-17T10:03:46.185Z,98103.77
2022-09-17T10:06:15.467Z,98114.17
2022-09-17T10:09:03.250Z,98119.77
2022-09-17T10:11:35.466Z,98129.77
2022-09-17T10:14:24.585Z,98129.82
2022-09-17T10:17:22.666Z,98123.92
2022-09-17T10:19:59.881Z,98131.89
2022-09-17T10:22:33.308Z,98133.55
2022-09-17T10:25:03.748Z,98135.55
2022-09-17T10:27:33.050Z,98128.45
2022-09-17T10:30:26.035Z,98123.09
2022-09-17T10:33:22.082Z,98119.06
2022-09-17T10:36:10.237Z,98111.76
2022-09-17T10:38:43.827Z,98104.15
2022-09-17T10:41:17.709Z,98101.02
2022-09-17T10:43:46.015Z,98099.40
2022-09-17T10:46:33.997Z,98096.30
2022-09-17T10:49:21.123Z,98090.31
2022-09-17T10:51:50.149Z,98084.77
2022-09-17T10:55:01.732Z,98074.16
2022-09-17T10:58:23.511Z,98065.71
2022-09-17T11:01:35.940Z,98067.79
2022-09-17T11:04:18.846Z,98064.00
2022-09-17T11:07:15.315Z,98066.30
2022-09-17T11:10:03.648Z,98061.24
2022-09-17T11:12:37.452Z,98060.03
2022-09-17T11:15:33.084Z,98053.49
2022-09-17T11:18:27.186Z,98050.44
2022-09-17T11:21:24.855Z,98055.84
2022-09-17T11:24:01.798Z,98063.89
2022-09-17T11:26:39.405Z,98067.42
2022-09-17T11:29:41.079Z,98066.25
2022-09-17T11:32:20.516Z,98066.66
2022-09-17T11:35:34.996Z,98071.55
2022-09-17T11:38:43.352Z,98070.16
2022-09-17T11:41:20.269Z,98067.30
2022-09-17T11:44:27.629Z,98065.25
2022-09-17T11:47:07.601Z,98064.69
2022-09-17T11:50:19.781Z,98065.80
2022-09-17T11:53:01.008Z,98064.11
2022-09-17T11:55:53.888Z,98052.49
2022-09-17T11:58:44.435Z,98043.33
2022-09-17T12:01:51.753Z,98041.88
2022-09-17T12:04:35.360Z,98049.44
2022-09-17T12:07:21.875Z,98059.52
2022-09-17T12:09:57.307Z,98053.04
2022-09-17T12:12:48.483Z,98052.42
2022-09-17T12:15:22.694Z,98049.93
2022-09-17T12:18:31.720Z,98043.66
2022-09-17T12:21:03.686Z,98038.20
2022-09-17T12:23:44.320Z,98045.65
2022-09-17T12:26:25.989Z,98047.92
2022-09-17T12:29:35.547Z,98046.11
2022-09-17T12:32:22.259Z,98043.30
2022-09-17T12:35:52.735Z,98039.58
2022-09-17T12:38:42.951Z,98027.20
2022-09-17T12:41:49.551Z,98019.27
2022-09-17T12:44:36.339Z,98002.67
2022-09-17T12:47:23.491Z,97993.92
2022-09-17T12:50:11.887Z,97992.31
2022-09-17T12:53:04.402Z,97989.66
2022-09-17T12:55:57.616Z,97984.96
2022-09-17T12:59:03.509Z,97987.48
2022-09-17T13:01:57.512Z,97987.01
2022-09-17T13:04:59.384Z,97996.48
2022-09-17T13:07:46.146Z,97992.73
2022-09-17T13:11:05.656Z,97989.51
2022-09-17T13:13:40.176Z,97987.88
2022-09-17T13:16:18.295Z,97993.01
2022-09-17T13:19:16.384Z,97986.78
2022-09-17T13:21:55.751Z,97992.79
2022-09-17T13:24:27.252Z,97986.36
2022-09-17T13:26:56.129Z,97984.42
2022-09-17T13:29:58.321Z,97988.91
2022-09-17T13:32:55.522Z,97983.05
2022-09-17T13:35:24.856Z,97984.48
2022-09-17T13:38:01.171Z,97992.55
2022-09-17T13:40:46.779Z,97999.47
2022-09-17T13:43:20.099Z,98009.65
2022-09-17T13:45:59.358Z,98008.48
2022-09-17T13:48:33.866Z,98007.14
2022-09-17T13:51:33.620Z,98007.42
2022-09-17T13:54:12.824Z,98006.64
2022-09-17T13:56:46.658Z,98003.52
2022-09-17T13:59:28.189Z,97993.66
2022-09-17T14:02:08.619Z,97986.95
2022-09-17T14:05:23.337Z,97977.25
2022-09-17T14:08:06.657Z,97975.46
2022-09-17T14:10:37.859Z,97974.42
2022-09-17T14:13:26.650Z,97973.46
2022-09-17T14:15:58.393Z,97972.80
2022-09-17T14:18:59.233Z,97970.98
2022-09-17T14:21:31.723Z,97967.79
2022-09-17T14:24:02.781Z,97963.14
2022-09-17T14:26:59.567Z,97964.43
2022-09-17T14:30:15.299Z,97965.25
2022-09-17T14:33:13.857Z,97961.17
2022-09-17T14:35:44.508Z,97960.17
2022-09-17T14:38:32.615Z,97957.11
2022-09-17T14:41:07.839Z,97951.04
2022-09-17T14:44:04.550Z,97952.80
2022-09-17T14:47:05.437Z,97959.08
2022-09-17T14:49:41.237Z,97960.56
2022-09-17T14:52:37.659Z,97965.39
2022-09-17T14:55:19.918Z,97965.71
2022-09-17T14:58:31.037Z,97960.89
2022-09-17T15:00:59.244Z,97969.70
2022-09-17T15:03:27.365Z,97982.05
2022-09-17T15:05:56.560Z,97988.15
2022-09-17T15:08:29.023Z,97992.91
2022-09-17T15:11:03.472Z,97995.55
2022-09-17T15:13:38.561Z,98002.06
2022-09-17T15:16:15.222Z,98011.92
2022-09-17T15:18:52.765Z,98016.18
2022-09-17T15:21:42.472Z,98013.73
2022-09-17T15:24:32.550Z,98022.08
2022-09-17T15:27:06.977Z,98028.34
2022-09-17T15:29:39.231Z,98027.73
2022-09-17T15:32:12.436Z,98026.89
2022-09-17T15:34:42.256Z,98021.09
2022-09-17T15:37:25.666Z,98024.01
2022-09-17T15:39:56.775Z,98024.20
2022-09-17T15:42:31.471Z,98025.37
2022-09-17T15:45:28.496Z,98022.94
2022-09-17T15:48:01.266Z,98023.50
2022-09-17T15:50:31.418Z,98027.85
2022-09-17T15:53:13.987Z,98033.11
2022-09-17T15:55:46.016Z,98036.76
2022-09-17T15:58:29.926Z,98050.07
2022-09-17T16:01:36.762Z,98051.98
2022-09-17T16:04:21.238Z,98054.14
2022-09-17T16:07:27.598Z,98056.02
2022-09-17T16:09:56.810Z,98060.58
2022-09-17T16:12:28.958Z,98064.39
2022-09-17T16:15:00.899Z,98072.33
2022-09-17T16:17:43.428Z,98066.02
2022-09-17T16:20:24.011Z,98077.33
2022-09-17T16:22:53.371Z,98076.13
2022-09-17T16:25:25.554Z,98084.08
2022-09-17T16:28:02.944Z,98086.31
2022-09-17T16:30:32.293Z,98083.87
2022-09-17T16:33:03.695Z,98084.89
2022-09-17T16:35:32.477Z,98087.13
2022-09-17T16:38:03.372Z,98086.76
2022-09-17T16:40:34.591Z,98092.55
2022-09-17T16:43:04.012Z,98098.34
2022-09-17T16:45:32.586Z,98100.27
2022-09-17T16:48:01.324Z,98100.02
2022-09-17T16:50:29.240Z,98099.92
2022-09-17T16:52:58.677Z,98099.14
2022-09-17T16:55:30.427Z,98106.00
2022-09-17T16:57:59.531Z,98111.48
2022-09-17T17:00:29.248Z,98114.22
2022-09-17T17:03:00.175Z,98110.10
2022-09-17T17:05:28.807Z,98102.07
2022-09-17T17:08:06.566Z,98098.43
2022-09-17T17:10:37.362Z,98094.14
2022-09-17T17:13:05.942Z,98094.08
2022-09-17T17:15:34.999Z,98094.08
2022-09-17T17:18:05.166Z,98092.48
2022-09-17T17:20:37.429Z,98095.23
2022-09-17T17:23:05.647Z,98101.09
2022-09-17T17:25:35.175Z,98101.40
2022-09-17T17:28:02.980Z,98100.56
2022-09-17T17:30:35.052Z,98104.14
2022-09-17T17:33:04.218Z,98105.46
2022-09-17T17:35:32.118Z,98102.83
2022-09-17T17:37:59.919Z,98101.35
2022-09-17T17:40:28.783Z,98098.55
2022-09-17T17:42:57.941Z,98104.30
2022-09-17T17:45:26.144Z,98106.86
2022-09-17T17:47:54.175Z,98109.36
2022-09-17T17:50:23.855Z,98113.60
2022-09-17T17:52:55.148Z,98116.55
2022-09-17T17:55:22.954Z,98121.36
2022-09-17T17:58:01.130Z,98116.48
2022-09-17T18:00:30.377Z,98118.27
2022-09-17T18:02:59.097Z,98118.58
2022-09-17T18:05:27.408Z,98118.77
2022-09-17T18:07:55.897Z,98121.29
2022-09-17T18:10:29.867Z,98118.73
2022-09-17T18:12:58.534Z,98121.69
2022-09-17T18:15:29.290Z,98124.10
2022-09-17T18:17:58.872Z,98120.91
2022-09-17T18:20:27.514Z,98119.95
2022-09-17T18:22:56.544Z,98123.48
2022-09-17T18:25:25.353Z,98120.02
2022-09-17T18:27:54.869Z,98112.97
2022-09-17T18:30:23.523Z,98112.45
2022-09-17T18:32:53.289Z,98111.23
2022-09-17T18:35:23.524Z,98112.06
2022-09-17T18:37:52.097Z,98108.14
2022-09-17T18:40:22.105Z,98112.27
2022-09-17T18:42:53.207Z,98115.71
2022-09-17T18:45:28.866Z,98120.89
2022-09-17T18:47:57.390Z,98120.77
2022-09-17T18:50:26.422Z,98123.98
2022-09-17T18:52:55.171Z,98122.61
2022-09-17T18:55:24.864Z,98125.38
2022-09-17T18:57:53.539Z,98128.05
2022-09-17T19:00:25.311Z,98126.33
2022-09-17T19:02:53.887Z,98127.66
2022-09-17T19:05:28.771Z,98132.14
2022-09-17T19:07:57.584Z,98132.02
2022-09-17T19:10:34.784Z,98132.30
2022-09-17T19:13:03.844Z,98133.60
2022-09-17T19:15:33.727Z,98135.42
2022-09-17T19:18:02.639Z,98137.19
2022-09-17T19:20:37.251Z,98135.30
2022-09-17T19:23:07.144Z,98133.92
2022-09-17T19:25:37.198Z,98135.20
2022-09-17T19:28:05.614Z,98133.13
2022-09-17T19:30:36.117Z,98133.48
2022-09-17T19:33:04.732Z,98133.33
2022-09-17T19:35:34.002Z,98129.53
2022-09-17T19:38:04.872Z,98123.99
2022-09-17T19:40:34.415Z,98122.31
2022-09-17T19:43:02.818Z,98122.30
2022-09-17T19:45:31.131Z,98124.95
2022-09-17T19:48:01.903Z,98121.30
2022-09-17T19:50:32.141Z,98120.04
2022-09-17T19:53:01.083Z,98126.17
2022-09-17T19:55:29.232Z,98123.86
2022-09-17T19:58:03.832Z,98122.52
2022-09-17T20:00:33.774Z,98123.77
2022-09-17T20:03:03.746Z,98127.48
2022-09-17T20:05:34.191Z,98129.59
2022-09-17T20:08:04.334Z,98131.88
2022-09-17T20:10:36.574Z,98135.33
2022-09-17T20:13:05.305Z,98132.85
2022-09-17T20:15:36.500Z,98129.12
2022-09-17T20:18:05.055Z,98131.14
2022-09-17T20:20:33.447Z,98129.70
2022-09-17T20:23:02.033Z,98130.20
2022-09-17T20:25:31.031Z,98134.02
2022-09-17T20:28:00.275Z,98136.92
2022-09-17T20:30:28.411Z,98138.47
2022-09-17T20:32:56.265Z,98138.74
2022-09-17T20:35:25.819Z,98138.34
2022-09-17T20:39:06.587Z,98140.40
2022-09-17T20:40:42.697Z,98138.11
2022-09-17T20:43:10.875Z,98141.92
2022-09-17T20:45:38.970Z,98143.56
2022-09-17T20:48:07.139Z,98147.54
2022-09-17T20:50:36.619Z,98148.41
2022-09-17T20:53:06.199Z,98145.77
2022-09-17T20:55:35.161Z,98145.77
2022-09-17T20:58:03.858Z,98145.48
2022-09-17T21:00:34.221Z,98150.67
2022-09-17T21:03:02.785Z,98146.86
2022-09-17T21:05:30.985Z,98148.17
2022-09-17T21:07:59.707Z,98145.73
2022-09-17T21:10:28.436Z,98147.55
2022-09-17T21:12:56.935Z,98149.77
2022-09-17T21:15:25.326Z,98145.89
2022-09-17T21:17:59.604Z,98148.98
2022-09-17T21:20:27.508Z,98150.12
2022-09-17T21:22:55.979Z,98148.44
2022-09-17T21:25:24.064Z,98147.30
2022-09-17T21:28:22.331Z,98147.36
2022-09-17T21:31:33.001Z,98147.12
2022-09-17T21:34:04.886Z,98146.10
2022-09-17T21:36:35.845Z,98142.55
2022-09-17T21:39:07.195Z,98141.27
2022-09-17T21:41:39.913Z,98142.13
2022-09-17T21:44:12.995Z,98139.07
2022-09-17T21:46:44.075Z,98137.63
2022-09-17T21:49:13.885Z,98135.83
2022-09-17T21:51:42.953Z,98136.85
2022-09-17T21:54:13.808Z,98135.10
2022-09-17T21:56:41.736Z,98138.49
2022-09-17T21:59:15.138Z,98140.15
2022-09-17T22:01:47.145Z,98145.25
2022-09-17T22:04:35.084Z,98145.87
2022-09-17T22:07:03.213Z,98139.61
2022-09-17T22:09:33.853Z,98137.53
2022-09-17T22:12:06.639Z,98131.56
2022-09-17T22:14:34.695Z,98128.83
2022-09-17T22:17:03.219Z,98127.48
2022-09-17T22:19:34.682Z,98123.84
2022-09-17T22:22:04.863Z,98122.56
2022-09-17T22:24:34.535Z,98118.52
2022-09-17T22:27:03.551Z,98111.91
2022-09-17T22:29:32.428Z,98112.05
2022-09-17T22:32:01.047Z,98111.11
2022-09-17T22:34:30.107Z,98110.81
2022-09-17T22:37:00.022Z,98109.60
2022-09-17T22:39:28.740Z,98106.11
2022-09-17T22:41:56.575Z,98101.92
2022-09-17T22:44:26.049Z,98099.69
2022-09-17T22:46:54.651Z,98097.45
2022-09-17T22:49:23.256Z,98090.66
2022-09-17T22:51:52.792Z,98091.44
2022-09-17T22:54:32.806Z,98084.45
2022-09-17T22:57:22.490Z,98086.59
2022-09-17T22:59:52.934Z,98085.11
2022-09-17T23:02:22.588Z,98083.09
2022-09-17T23:04:54.036Z,98085.09
2022-09-17T23:07:22.530Z,98082.45
2022-09-17T23:09:52.219Z,98083.27
2022-09-17T23:12:22.371Z,98085.60
2022-09-17T23:19:26.519Z,98076.73
2022-09-17T23:22:16.953Z,98073.76
2022-09-17T23:24:44.918Z,98073.58
2022-09-17T23:27:13.066Z,98070.62
2022-09-17T23:29:41.867Z,98065.81
2022-09-17T23:32:11.488Z,98067.28
2022-09-17T23:35:03.597Z,98069.45
2022-09-17T23:37:35.676Z,98069.23
2022-09-17T23:40:22.499Z,98066.77
2022-09-17T23:42:52.339Z,98070.05
2022-09-17T23:45:21.555Z,98067.13
2022-09-17T23:47:50.107Z,98063.45
2022-09-17T23:50:18.925Z,98059.40
2022-09-17T23:52:47.007Z,98052.73
2022-09-17T23:55:15.132Z,98056.11
2022-09-17T23:57:44.185Z,98052.40
